createdAt,value
2023-01-13T00:02:56.311Z,3.20
2023-01-13T00:06:00.855Z,2.30
2023-01-13T00:09:05.181Z,2.42
2023-01-13T00:12:09.693Z,2.30
2023-01-13T00:15:15.315Z,1.83
2023-01-13T00:18:19.996Z,2.50
2023-01-13T00:21:25.096Z,2.47
2023-01-13T00:24:30.061Z,1.90
2023-01-13T00:27:34.548Z,2.33
2023-01-13T00:30:38.768Z,1.23
2023-01-13T00:33:43.633Z,2.42
2023-01-13T00:36:47.949Z,2.08
2023-01-13T00:39:53.171Z,2.53
2023-01-13T00:43:15.889Z,2.35
2023-01-13T00:46:21.466Z,2.17
2023-01-13T00:49:25.928Z,1.95
2023-01-13T00:52:32.479Z,2.13
2023-01-13T00:55:37.145Z,2.28
2023-01-13T00:58:42.969Z,2.08
2023-01-13T01:01:47.638Z,2.35
2023-01-13T01:04:52.265Z,1.90
2023-01-13T01:07:57.000Z,2.17
2023-01-13T01:11:07.025Z,3.40
2023-01-13T01:14:13.822Z,3.33
2023-01-13T01:17:18.152Z,5.90
2023-01-13T01:20:22.499Z,4.20
2023-01-13T01:23:29.150Z,4.13
2023-01-13T01:26:33.738Z,3.97
2023-01-13T01:29:38.390Z,4.55
2023-01-13T01:32:42.920Z,5.57
2023-01-13T01:35:47.413Z,4.25
2023-01-13T01:38:51.621Z,4.43
2023-01-13T01:42:14.464Z,5.43
2023-01-13T01:45:21.735Z,5.28
2023-01-13T01:48:29.257Z,4.07
2023-01-13T01:51:41.532Z,3.20
2023-01-13T01:54:57.297Z,3.00
2023-01-13T01:58:21.303Z,2.63
2023-01-13T02:01:26.300Z,3.08
2023-01-13T02:04:36.413Z,3.15
2023-01-13T02:07:43.127Z,3.90
2023-01-13T02:10:54.158Z,3.53
2023-01-13T02:13:58.616Z,3.28
2023-01-13T02:17:21.259Z,2.00
2023-01-13T02:20:52.432Z,2.25
2023-01-13T02:24:40.111Z,1.88
2023-01-13T02:27:59.256Z,1.77
2023-01-13T02:31:27.295Z,2.15
2023-01-13T02:35:17.684Z,2.63
2023-01-13T02:38:28.952Z,2.67
2023-01-13T02:42:05.290Z,3.55
2023-01-13T02:45:18.745Z,2.55
2023-01-13T02:48:24.764Z,2.90
2023-01-13T02:51:31.064Z,2.03
2023-01-13T02:54:37.825Z,1.65
2023-01-13T02:57:42.837Z,3.03
2023-01-13T03:00:49.387Z,2.08
2023-01-13T03:03:54.032Z,2.53
2023-01-13T03:07:19.570Z,2.40
2023-01-13T03:10:33.486Z,1.95
2023-01-13T03:13:38.168Z,2.88
2023-01-13T03:16:55.203Z,2.70
2023-01-13T03:20:19.115Z,3.25
2023-01-13T03:23:35.386Z,2.90
2023-01-13T03:26:45.728Z,2.63
2023-01-13T03:30:02.003Z,2.75
2023-01-13T03:33:21.703Z,3.00
2023-01-13T03:36:29.223Z,2.28
2023-01-13T03:39:38.026Z,2.50
2023-01-13T03:43:07.131Z,3.22
2023-01-13T03:46:23.370Z,2.17
2023-01-13T03:49:38.663Z,3.30
2023-01-13T03:52:56.032Z,3.22
2023-01-13T03:56:16.064Z,3.40
2023-01-13T03:59:25.656Z,4.40
2023-01-13T04:02:30.701Z,4.10
2023-01-13T04:05:39.516Z,2.88
2023-01-13T04:08:52.012Z,4.35
2023-01-13T04:12:20.906Z,2.72
2023-01-13T04:15:28.404Z,3.85
2023-01-13T04:18:36.501Z,3.08
2023-01-13T04:21:41.019Z,3.45
2023-01-13T04:24:45.245Z,3.67
2023-01-13T04:27:49.765Z,5.30
2023-01-13T04:30:54.230Z,3.70
2023-01-13T04:33:58.649Z,4.43
2023-01-13T04:37:03.243Z,3.72
2023-01-13T04:40:08.679Z,2.63
2023-01-13T04:43:13.014Z,3.20
2023-01-13T04:46:17.443Z,3.17
2023-01-13T04:49:22.152Z,3.88
2023-01-13T04:52:27.461Z,5.07
2023-01-13T04:55:32.109Z,5.18
2023-01-13T04:58:36.470Z,4.22
2023-01-13T05:01:41.190Z,4.85
2023-01-13T05:04:47.408Z,3.88
2023-01-13T05:07:51.724Z,5.25
2023-01-13T05:10:59.569Z,4.38
2023-01-13T05:14:22.779Z,4.30
2023-01-13T05:17:27.501Z,3.33
2023-01-13T05:20:32.484Z,4.35
2023-01-13T05:23:55.252Z,3.88
2023-01-13T05:26:59.496Z,4.28
2023-01-13T05:30:05.300Z,4.97
2023-01-13T05:33:18.086Z,4.10
2023-01-13T05:36:22.238Z,3.97
2023-01-13T05:39:49.744Z,3.83
2023-01-13T05:43:21.128Z,4.80
2023-01-13T05:46:25.960Z,5.07
2023-01-13T05:49:30.211Z,3.33
2023-01-13T05:52:34.544Z,4.10
2023-01-13T05:55:42.830Z,3.35
2023-01-13T05:58:46.827Z,4.93
2023-01-13T06:01:51.146Z,4.55
2023-01-13T06:04:55.647Z,5.25
2023-01-13T06:08:02.154Z,4.25
2023-01-13T06:11:06.475Z,4.70
2023-01-13T06:14:10.928Z,4.50
2023-01-13T06:17:16.400Z,4.90
2023-01-13T06:20:20.614Z,4.05
2023-01-13T06:23:24.990Z,4.93
2023-01-13T06:26:33.361Z,4.78
2023-01-13T06:29:38.078Z,4.30
2023-01-13T06:32:46.645Z,4.07
2023-01-13T06:35:56.857Z,5.20
2023-01-13T06:39:03.980Z,4.97
2023-01-13T06:42:27.536Z,6.82
2023-01-13T06:45:32.014Z,5.68
2023-01-13T06:48:36.830Z,5.53
2023-01-13T06:51:41.171Z,3.78
2023-01-13T06:54:45.457Z,4.63
2023-01-13T06:57:55.272Z,5.00
2023-01-13T07:01:00.888Z,5.43
2023-01-13T07:04:05.528Z,6.70
2023-01-13T07:07:09.885Z,5.43
2023-01-13T07:10:22.085Z,6.15
2023-01-13T07:13:44.978Z,5.28
2023-01-13T07:16:49.336Z,5.68
2023-01-13T07:19:53.750Z,4.75
2023-01-13T07:22:58.403Z,5.88
2023-01-13T07:26:02.901Z,4.85
2023-01-13T07:29:07.287Z,5.07
2023-01-13T07:32:11.714Z,6.57
2023-01-13T07:35:17.425Z,5.07
2023-01-13T07:38:21.654Z,8.07
2023-01-13T07:41:44.464Z,4.85
2023-01-13T07:44:48.791Z,6.22
2023-01-13T07:47:53.845Z,5.65
2023-01-13T07:51:03.426Z,4.60
2023-01-13T07:54:07.819Z,5.50
2023-01-13T07:57:12.604Z,7.63
2023-01-13T08:00:17.778Z,5.80
2023-01-13T08:03:23.569Z,4.43
2023-01-13T08:06:28.013Z,4.93
2023-01-13T08:09:32.792Z,5.15
2023-01-13T08:12:57.213Z,5.35
2023-01-13T08:16:07.479Z,3.95
2023-01-13T08:19:11.798Z,4.28
2023-01-13T08:22:16.439Z,7.27
2023-01-13T08:25:21.060Z,3.75
2023-01-13T08:28:25.522Z,3.97
2023-01-13T08:31:29.954Z,3.75
2023-01-13T08:34:36.123Z,4.73
2023-01-13T08:37:41.059Z,4.85
2023-01-13T08:40:45.584Z,4.13
2023-01-13T08:43:53.225Z,4.20
2023-01-13T08:46:58.348Z,4.95
2023-01-13T08:50:03.818Z,6.13
2023-01-13T08:53:08.397Z,6.53
2023-01-13T08:56:14.500Z,5.65
2023-01-13T08:59:20.101Z,5.43
2023-01-13T09:02:26.307Z,6.40
2023-01-13T09:05:30.703Z,7.13
2023-01-13T09:08:35.251Z,4.40
2023-01-13T09:12:02.440Z,7.40
2023-01-13T09:15:07.044Z,5.97
2023-01-13T09:18:12.422Z,5.75
2023-01-13T09:21:19.673Z,5.47
2023-01-13T09:24:24.516Z,6.82
2023-01-13T09:27:28.976Z,6.10
2023-01-13T09:30:33.509Z,5.22
2023-01-13T09:33:56.605Z,6.90
2023-01-13T09:37:01.117Z,5.13
2023-01-13T09:40:09.565Z,4.75
2023-01-13T09:43:42.103Z,5.68
2023-01-13T09:46:53.762Z,6.07
2023-01-13T09:50:36.856Z,4.13
2023-01-13T09:53:50.957Z,4.90
2023-01-13T09:56:55.157Z,6.00
2023-01-13T09:59:59.597Z,5.63
2023-01-13T10:03:27.605Z,5.55
2023-01-13T10:06:38.766Z,5.85
2023-01-13T10:09:51.249Z,5.50
2023-01-13T10:13:14.253Z,4.90
2023-01-13T10:16:43.940Z,5.43
2023-01-13T10:20:06.805Z,8.57
2023-01-13T10:23:51.157Z,6.13
2023-01-13T10:27:09.985Z,4.95
2023-01-13T10:30:31.124Z,5.85
2023-01-13T10:33:35.563Z,5.13
2023-01-13T10:36:53.965Z,5.90
2023-01-13T10:40:02.271Z,5.13
2023-01-13T10:43:06.712Z,4.75
2023-01-13T10:46:16.033Z,5.32
2023-01-13T10:49:26.994Z,5.82
2023-01-13T10:52:38.107Z,5.40
2023-01-13T10:55:44.097Z,5.22
2023-01-13T10:58:48.761Z,5.93
2023-01-13T11:02:32.248Z,4.00
2023-01-13T11:05:36.959Z,5.60
2023-01-13T11:08:47.608Z,4.88
2023-01-13T11:11:55.488Z,4.65
2023-01-13T11:15:09.559Z,6.00
2023-01-13T11:18:28.373Z,3.72
2023-01-13T11:21:49.555Z,5.43
2023-01-13T11:24:55.245Z,2.80
2023-01-13T11:28:32.748Z,4.45
2023-01-13T11:31:46.127Z,4.60
2023-01-13T11:35:04.250Z,4.82
2023-01-13T11:38:28.421Z,4.45
2023-01-13T11:41:32.705Z,4.97
2023-01-13T11:45:12.738Z,5.15
2023-01-13T11:48:26.945Z,4.10
2023-01-13T11:51:58.647Z,4.82
2023-01-13T11:55:13.704Z,6.22
2023-01-13T11:58:51.128Z,4.85
2023-01-13T12:02:14.300Z,4.30
2023-01-13T12:05:38.899Z,5.10
2023-01-13T12:08:57.675Z,3.88
2023-01-13T12:12:20.085Z,5.00
2023-01-13T12:15:39.100Z,5.18
2023-01-13T12:19:10.683Z,4.13
2023-01-13T12:22:23.481Z,5.55
2023-01-13T12:25:39.757Z,4.07
2023-01-13T12:29:20.214Z,5.10
2023-01-13T12:32:34.431Z,3.63
2023-01-13T12:36:11.560Z,4.68
2023-01-13T12:39:43.503Z,4.28
2023-01-13T12:43:27.915Z,4.30
2023-01-13T12:46:32.150Z,3.65
2023-01-13T12:49:36.567Z,6.43
2023-01-13T12:52:45.118Z,6.20
2023-01-13T12:55:53.133Z,4.78
2023-01-13T12:59:19.725Z,3.95
2023-01-13T13:02:27.795Z,6.15
2023-01-13T13:05:41.552Z,6.38
2023-01-13T13:09:13.551Z,6.35
2023-01-13T13:13:11.991Z,6.43
2023-01-13T13:16:44.025Z,5.82
2023-01-13T13:19:49.729Z,3.78
2023-01-13T13:26:20.580Z,5.35
2023-01-13T13:29:49.868Z,5.95
2023-01-13T13:33:19.979Z,4.18
2023-01-13T13:36:53.491Z,4.68
2023-01-13T13:40:16.299Z,4.63
2023-01-13T13:43:39.421Z,4.25
2023-01-13T13:46:46.763Z,5.15
2023-01-13T13:49:54.447Z,4.75
2023-01-13T13:53:05.247Z,4.82
2023-01-13T13:56:22.898Z,3.47
2023-01-13T13:59:30.638Z,5.47
2023-01-13T14:02:37.600Z,3.53
2023-01-13T14:05:54.260Z,3.53
2023-01-13T14:08:58.987Z,3.53
2023-01-13T14:12:08.457Z,4.03
2023-01-13T14:15:33.843Z,3.53
2023-01-13T14:18:45.740Z,4.28
2023-01-13T14:21:50.118Z,3.08
2023-01-13T14:24:58.094Z,3.35
2023-01-13T14:28:17.077Z,3.92
2023-01-13T14:31:21.656Z,4.03
2023-01-13T14:34:32.614Z,3.67
2023-01-13T14:37:39.988Z,3.30
2023-01-13T14:40:46.419Z,3.58
2023-01-13T14:43:54.157Z,3.08
2023-01-13T14:47:05.065Z,4.43
2023-01-13T14:50:12.138Z,4.32
2023-01-13T14:53:46.848Z,4.38
2023-01-13T14:56:53.730Z,3.03
2023-01-13T15:00:18.967Z,4.13
2023-01-13T15:03:23.566Z,4.30
2023-01-13T15:06:28.207Z,3.50
2023-01-13T15:09:42.678Z,2.92
2023-01-13T15:12:50.701Z,3.80
2023-01-13T15:16:01.175Z,3.08
2023-01-13T15:19:05.480Z,3.08
2023-01-13T15:22:09.916Z,2.42
2023-01-13T15:25:14.951Z,3.22
2023-01-13T15:28:24.916Z,3.53
2023-01-13T15:31:29.515Z,4.18
2023-01-13T15:34:33.830Z,4.05
2023-01-13T15:37:38.297Z,2.75
2023-01-13T15:40:42.899Z,2.05
2023-01-13T15:44:05.931Z,2.13
2023-01-13T15:47:10.634Z,3.53
2023-01-13T15:50:18.283Z,3.85
2023-01-13T15:53:22.446Z,2.08
2023-01-13T15:56:26.869Z,3.80
2023-01-13T15:59:31.186Z,2.10
2023-01-13T16:02:35.536Z,4.03
2023-01-13T16:05:44.597Z,2.55
2023-01-13T16:08:49.477Z,3.17
2023-01-13T16:11:54.038Z,2.78
2023-01-13T16:14:59.281Z,1.75
2023-01-13T16:18:04.662Z,3.40
2023-01-13T16:21:13.364Z,3.28
2023-01-13T16:24:17.887Z,3.42
2023-01-13T16:27:25.324Z,4.20
2023-01-13T16:30:35.877Z,2.00
2023-01-13T16:33:40.271Z,3.38
2023-01-13T16:36:46.298Z,2.65
2023-01-13T16:39:50.916Z,3.63
2023-01-13T16:42:55.860Z,3.28
2023-01-13T16:46:00.572Z,2.53
2023-01-13T16:49:06.489Z,2.70
2023-01-13T16:52:11.022Z,3.33
2023-01-13T16:55:15.691Z,4.70
2023-01-13T16:58:21.276Z,3.40
2023-01-13T17:01:28.926Z,2.85
2023-01-13T17:04:33.582Z,2.80
2023-01-13T17:07:38.334Z,2.55
2023-01-13T17:10:43.638Z,2.83
2023-01-13T17:13:48.054Z,2.88
2023-01-13T17:16:57.037Z,2.25
2023-01-13T17:20:01.589Z,3.22
2023-01-13T17:23:05.893Z,2.30
2023-01-13T17:26:32.067Z,2.70
2023-01-13T17:29:36.200Z,2.97
2023-01-13T17:32:41.582Z,2.22
2023-01-13T17:35:46.614Z,3.53
2023-01-13T17:38:51.179Z,2.63
2023-01-13T17:41:58.289Z,3.03
2023-01-13T17:45:02.960Z,2.45
2023-01-13T17:48:07.807Z,3.38
2023-01-13T17:51:13.578Z,1.48
2023-01-13T17:54:18.561Z,2.20
2023-01-13T17:57:23.038Z,2.10
2023-01-13T18:00:29.582Z,1.35
2023-01-13T18:03:34.390Z,2.03
2023-01-13T18:06:38.943Z,2.28
2023-01-13T18:09:43.624Z,3.35
2023-01-13T18:12:47.960Z,3.13
2023-01-13T18:16:09.112Z,1.93
2023-01-13T18:19:32.162Z,2.40
2023-01-13T18:22:55.030Z,2.40
2023-01-13T18:26:17.754Z,4.97
2023-01-13T18:29:22.439Z,2.92
2023-01-13T18:32:32.857Z,3.45
2023-01-13T18:35:40.673Z,2.53
2023-01-13T18:38:45.153Z,2.50
2023-01-13T18:42:08.035Z,3.40
2023-01-13T18:45:12.226Z,2.50
2023-01-13T18:48:16.596Z,3.83
2023-01-13T18:51:20.807Z,2.53
2023-01-13T18:54:25.198Z,3.30
2023-01-13T18:57:29.737Z,2.22
2023-01-13T19:00:37.331Z,1.90
2023-01-13T19:03:41.746Z,2.03
2023-01-13T19:06:49.732Z,2.85
2023-01-13T19:09:59.424Z,1.77
2023-01-13T19:13:04.019Z,2.20
2023-01-13T19:16:08.979Z,1.80
2023-01-13T19:19:13.535Z,3.60
2023-01-13T19:22:22.423Z,2.73
2023-01-13T19:25:26.773Z,2.13
2023-01-13T19:28:32.000Z,2.70
2023-01-13T19:31:36.371Z,2.75
2023-01-13T19:34:42.234Z,3.00
2023-01-13T19:37:46.750Z,1.70
2023-01-13T19:40:59.457Z,2.00
2023-01-13T19:44:22.558Z,4.05
2023-01-13T19:47:27.042Z,4.22
2023-01-13T19:50:35.009Z,2.67
2023-01-13T19:53:39.311Z,2.05
2023-01-13T19:56:43.668Z,2.37
2023-01-13T19:59:48.273Z,2.55
2023-01-13T20:02:53.363Z,2.67
2023-01-13T20:06:06.436Z,1.90
2023-01-13T20:09:11.779Z,2.00
2023-01-13T20:12:16.473Z,2.20
2023-01-13T20:15:20.701Z,2.58
2023-01-13T20:18:25.026Z,2.63
2023-01-13T20:21:29.387Z,3.50
2023-01-13T20:24:34.287Z,1.65
2023-01-13T20:27:38.724Z,1.83
2023-01-13T20:30:43.165Z,1.77
2023-01-13T20:33:51.254Z,3.03
2023-01-13T20:36:55.685Z,2.78
2023-01-13T20:40:03.089Z,2.97
2023-01-13T20:43:07.615Z,2.35
2023-01-13T20:46:12.062Z,2.28
2023-01-13T20:49:16.392Z,2.78
2023-01-13T20:52:22.405Z,2.45
2023-01-13T20:55:27.055Z,1.98
2023-01-13T20:58:31.656Z,2.63
2023-01-13T21:01:36.373Z,3.05
2023-01-13T21:04:41.545Z,2.15
2023-01-13T21:07:45.571Z,2.67
2023-01-13T21:10:50.427Z,2.47
2023-01-13T21:14:13.120Z,3.03
2023-01-13T21:17:35.925Z,3.30
2023-01-13T21:20:40.509Z,2.78
2023-01-13T21:23:47.265Z,3.63
2023-01-13T21:27:10.110Z,2.78
2023-01-13T21:30:15.802Z,4.00
2023-01-13T21:33:21.612Z,5.13
2023-01-13T21:36:27.696Z,2.53
2023-01-13T21:39:32.126Z,2.70
2023-01-13T21:42:55.142Z,2.25
2023-01-13T21:46:18.146Z,3.47
2023-01-13T21:49:22.836Z,3.85
2023-01-13T21:52:27.592Z,2.80
2023-01-13T21:55:32.777Z,3.60
2023-01-13T21:58:38.778Z,4.82
2023-01-13T22:05:08.150Z,2.92
2023-01-13T22:08:13.571Z,4.22
2023-01-13T22:11:18.172Z,4.00
2023-01-13T22:14:24.135Z,3.40
2023-01-13T22:17:31.470Z,4.22
2023-01-13T22:20:35.698Z,5.30
2023-01-13T22:23:40.110Z,4.10
2023-01-13T22:26:44.383Z,3.80
2023-01-13T22:29:49.674Z,4.17
2023-01-13T22:32:53.758Z,3.45
2023-01-13T22:35:58.694Z,3.67
2023-01-13T22:39:04.578Z,4.43
2023-01-13T22:42:10.163Z,2.53
2023-01-13T22:45:14.571Z,2.83
2023-01-13T22:48:18.864Z,2.33
2023-01-13T22:51:23.308Z,2.63
2023-01-13T22:54:27.852Z,2.33
2023-01-13T22:57:36.291Z,1.83
2023-01-13T23:00:47.455Z,1.75
2023-01-13T23:03:52.607Z,2.05
2023-01-13T23:06:56.880Z,2.75
2023-01-13T23:10:01.205Z,2.47
2023-01-13T23:13:06.573Z,1.80
2023-01-13T23:16:14.073Z,3.78
2023-01-13T23:19:18.362Z,1.63
2023-01-13T23:22:22.860Z,1.75
2023-01-13T23:25:27.292Z,1.88
2023-01-13T23:28:33.350Z,1.00
2023-01-13T23:31:38.096Z,2.38
2023-01-13T23:34:42.114Z,2.03
2023-01-13T23:37:46.233Z,1.93
2023-01-13T23:40:51.978Z,2.55
2023-01-13T23:43:58.860Z,1.90
2023-01-13T23:47:03.723Z,3.13
2023-01-13T23:50:08.847Z,1.20
2023-01-13T23:53:13.299Z,2.10
2023-01-13T23:56:20.541Z,2.67
2023-01-13T23:59:25.207Z,2.17
